Hovedside
METAR-TAF:

METAR-TAF

Lufthavner :

Pohnpei, Mikronesia

breddegrad: 06-59N, lengdegrad: 158-12E, høyde over havet: 2 m

Gjeldene værobservasjon

Denne rapporten ble laget for 4 timer og 2 minutter siden, klokken 04:50 UTC
Vind 15 kt fra Øst-nordøst
Temperatur 31°C
Luftfuktighet 75%
Trykk 1007 hPa
Sikt: 24.1 km
Brutte skyer i en høyde av 1800 ft, Tårnskyer (cumulus).
Overskyet i en høyde av 30000 ft

METAR: PTPN 120450Z 06015KT 15SM BKN018TCU OVC300 31/26 A2974 RMK TCU ALQDS LAST

Tid: 19:52 (08:52 UTC)

Varsel

Denne rapporten ble laget for 9 timer og 18 minutter siden, klokken 23:34 UTC
Varsel gyldig fra 12. klokken 00 UTC til 12. klokken 24 UTC
Vind 11 kt fra Nordøst
Sikt: 10 km
Spredte skyer i en høyde av 1800 ft
Spredte skyer i en høyde av 4000 ft
Brutte skyer i en høyde av 12000 ft
regnbyger i nærheten

TAF: PTPN 112334Z 1200/1224 04011KT P6SM VCSH SCT018 SCT040 BKN120

Værobservasjoner og værvarsel for over 4000 flyplasser (METAR- og TAF-rapporter).

Tilgjengelige stasjoner er representert av de røde og gule prikkene på kartet.

Hold musepekeren over prikken for å se navnet på stasjonen.

Klikk så for å se værobservasjoner og -varsler.

For å forandre kartet kan du klikke på den grønne knappen med svart kryss for å zoome inn, på den grønne knappen med strek for å zoome ut, eller på de grønne pilene for å se tilstøtende kart.


METAR-TAF: